KHOT/HOT METAR and TAF weather

Enter ICAO airport designator
Station Type Date Time Source
KHOT METAR 2021/08/05 04:53 UTC NOAA

KHOT 050453Z AUTO 00000KT 10SM CLR 23/18 A3010 RMK AO2 SLP187 T02280178


Station Type Date Time Source
KHOT Decoded METAR 2021/08/05 04:53 UTC NOAA

HOT SPRINGS MEMORIAL FIELD, AR, United States (KHOT) 34-29N 093-06W 162M
Aug 05, 2021 - 12:53 AM EDT / 2021.08.05 0453 UTC
Wind: Calm:0
Visibility: 10 mile(s):0
Sky conditions: clear
Temperature: 73.0 F (22.8 C)
Dew Point: 64.0 F (17.8 C)
Relative Humidity: 73%
Pressure (altimeter): 30.1 in. Hg (1019 hPa)
ob: KHOT 050453Z AUTO 00000KT 10SM CLR 23/18 A3010 RMK AO2 SLP187 T02280178
cycle: 5

Station Type Date Time Source
KHOT TAF 2021/08/05 06:22 UTC NOAA

TAF KHOT 050520Z 0506/0606 11003KT P6SM SCT250
FM051500 14004KT P6SM SCT050 BKN250

Example: see airport list